createdAt,value
2023-03-23T15:57:55.008Z,59.39
2023-03-23T16:00:23.889Z,59.84
2023-03-23T16:03:02.201Z,59.61
2023-03-23T16:05:29.038Z,59.86
2023-03-23T16:07:56.187Z,59.48
2023-03-23T16:10:24.857Z,59.86
2023-03-23T16:12:52.348Z,60.24
2023-03-23T16:15:19.501Z,59.88
2023-03-23T16:17:46.771Z,59.68
2023-03-23T16:20:19.643Z,60.17
2023-03-23T16:22:47.688Z,60.44
2023-03-23T16:25:15.114Z,61.14
2023-03-23T16:27:42.906Z,61.35
2023-03-23T16:30:16.011Z,60.68
2023-03-23T16:32:43.549Z,60.41
2023-03-23T16:35:10.828Z,59.92
2023-03-23T16:37:38.037Z,60.34
2023-03-23T16:40:05.953Z,61.01
2023-03-23T16:42:32.939Z,60.93
2023-03-23T16:44:59.637Z,61.38
2023-03-23T16:47:26.236Z,61.16
2023-03-23T16:49:53.992Z,61.88
2023-03-23T16:52:21.022Z,62.11
2023-03-23T16:54:47.611Z,62.44
2023-03-23T16:57:14.273Z,62.48
2023-03-23T16:59:40.800Z,62.67
2023-03-23T17:02:07.388Z,63.04
2023-03-23T17:04:34.268Z,62.92
2023-03-23T17:07:01.071Z,63.14
2023-03-23T17:09:28.116Z,63.18
2023-03-23T17:11:55.184Z,63.67
2023-03-23T17:14:22.069Z,63.89
2023-03-23T17:16:48.805Z,64.66
2023-03-23T17:19:15.664Z,65.04
2023-03-23T17:21:43.405Z,65.59
2023-03-23T17:24:10.066Z,65.96
2023-03-23T17:26:36.745Z,65.98
2023-03-23T17:29:03.841Z,66.32
2023-03-23T17:31:30.482Z,66.03
2023-03-23T17:33:57.830Z,66.80
2023-03-23T17:36:24.529Z,66.91
2023-03-23T17:38:51.399Z,67.14
2023-03-23T17:41:21.019Z,67.38
2023-03-23T17:43:47.901Z,67.65
2023-03-23T17:46:14.996Z,68.00
2023-03-23T17:48:41.819Z,68.22
2023-03-23T17:51:08.385Z,68.52
2023-03-23T17:53:35.965Z,68.75
2023-03-23T17:56:04.640Z,68.88
2023-03-23T17:58:31.238Z,69.59
2023-03-23T18:00:57.895Z,69.68
2023-03-23T18:03:25.958Z,69.67
2023-03-23T18:05:58.693Z,69.77
2023-03-23T18:08:26.248Z,70.14
2023-03-23T18:10:54.150Z,70.28
2023-03-23T18:13:20.690Z,70.75
2023-03-23T18:15:47.328Z,70.95
2023-03-23T18:18:13.898Z,70.97
2023-03-23T18:20:40.553Z,71.12
2023-03-23T18:23:07.173Z,71.27
2023-03-23T18:25:34.229Z,71.82
2023-03-23T18:28:05.460Z,72.01
2023-03-23T18:30:34.941Z,72.45
2023-03-23T18:33:01.773Z,72.42
2023-03-23T18:35:28.409Z,72.37
2023-03-23T18:37:55.079Z,72.59
2023-03-23T18:40:22.040Z,72.81
2023-03-23T18:42:49.154Z,73.17
2023-03-23T18:45:15.878Z,73.15
2023-03-23T18:47:43.542Z,73.13
2023-03-23T18:50:11.058Z,73.15
2023-03-23T18:52:37.875Z,73.25
2023-03-23T18:55:04.954Z,73.27
2023-03-23T18:57:31.536Z,73.75
2023-03-23T18:59:58.076Z,73.84
2023-03-23T19:02:24.742Z,73.91
2023-03-23T19:04:51.626Z,74.14
2023-03-23T19:07:19.818Z,74.18
2023-03-23T19:09:47.430Z,74.13
2023-03-23T19:12:15.693Z,74.27
2023-03-23T19:14:42.902Z,74.58
2023-03-23T19:17:09.519Z,74.44
2023-03-23T19:19:36.960Z,75.03
2023-03-23T19:22:05.163Z,74.34
2023-03-23T19:24:31.687Z,73.96
2023-03-23T19:26:58.248Z,74.11
2023-03-23T19:29:27.475Z,73.88
2023-03-23T19:31:55.884Z,73.96
2023-03-23T19:34:23.826Z,73.64
2023-03-23T19:36:55.126Z,73.31
2023-03-23T19:39:26.732Z,73.20
2023-03-23T19:41:53.454Z,73.57
2023-03-23T19:44:20.025Z,72.87
2023-03-23T19:46:48.219Z,73.09
2023-03-23T19:49:15.216Z,73.21
2023-03-23T19:51:41.733Z,73.05
2023-03-23T19:54:08.924Z,72.75
2023-03-23T19:56:36.136Z,72.49
2023-03-23T19:59:03.246Z,72.77
2023-03-23T20:01:29.915Z,72.49
2023-03-23T20:03:59.541Z,72.13
2023-03-23T20:06:28.917Z,71.96
2023-03-23T20:08:56.399Z,71.80
2023-03-23T20:11:23.005Z,72.07
2023-03-23T20:13:50.643Z,71.77
2023-03-23T20:16:18.200Z,72.19
2023-03-23T20:18:47.376Z,71.67
2023-03-23T20:21:19.790Z,71.67
2023-03-23T20:23:47.502Z,71.14
2023-03-23T20:26:17.768Z,71.16
2023-03-23T20:28:45.818Z,71.00
2023-03-23T20:31:36.614Z,70.79
2023-03-23T20:34:11.950Z,70.37
2023-03-23T20:36:42.263Z,70.57
2023-03-23T20:39:21.475Z,70.08
2023-03-23T20:41:54.529Z,69.84
2023-03-23T20:44:23.365Z,68.35
2023-03-23T20:46:51.984Z,68.46
2023-03-23T20:49:20.655Z,68.32
2023-03-23T20:51:47.851Z,68.18
2023-03-23T20:54:16.331Z,67.99
2023-03-23T20:56:43.574Z,68.22
2023-03-23T20:59:11.097Z,68.19
2023-03-23T21:01:39.897Z,68.18
2023-03-23T21:04:15.487Z,68.17
2023-03-23T21:06:43.678Z,68.05
2023-03-23T21:09:10.433Z,68.40
2023-03-23T21:11:37.454Z,68.30
2023-03-23T21:14:05.450Z,68.51
2023-03-23T21:16:32.399Z,69.16
2023-03-23T21:18:59.039Z,69.04
2023-03-23T21:21:27.373Z,69.57
2023-03-23T21:23:55.657Z,69.60
2023-03-23T21:26:24.842Z,70.18
2023-03-23T21:28:53.998Z,70.34
2023-03-23T21:31:23.494Z,70.54
2023-03-23T21:33:50.374Z,70.57
2023-03-23T21:36:17.069Z,70.95
2023-03-23T21:38:44.754Z,72.11
2023-03-23T21:41:14.142Z,72.50
2023-03-23T21:43:41.190Z,73.38
2023-03-23T21:46:09.768Z,74.19
2023-03-23T21:48:38.745Z,74.30
2023-03-23T21:51:11.858Z,74.83
2023-03-23T21:53:38.863Z,75.16
2023-03-23T21:56:07.492Z,75.99
2023-03-23T21:58:34.356Z,76.53
2023-03-23T22:01:02.162Z,77.05
2023-03-23T22:03:32.984Z,77.10
2023-03-23T22:06:09.126Z,77.79
2023-03-23T22:08:37.389Z,78.34
2023-03-23T22:11:07.314Z,78.96
2023-03-23T22:13:37.302Z,79.24
2023-03-23T22:16:05.414Z,79.25
2023-03-23T22:18:33.238Z,79.42
2023-03-23T22:20:59.885Z,79.32
2023-03-23T22:23:27.029Z,79.56
2023-03-23T22:25:54.479Z,79.85
2023-03-23T22:28:21.065Z,80.33
2023-03-23T22:30:47.918Z,80.35
2023-03-23T22:33:14.823Z,80.57
2023-03-23T22:35:41.393Z,80.57
2023-03-23T22:38:07.953Z,81.34
2023-03-23T22:40:34.534Z,80.59
2023-03-23T22:43:01.088Z,81.04
2023-03-23T22:45:28.113Z,81.69
2023-03-23T22:47:55.019Z,82.50
2023-03-23T22:50:24.100Z,82.52
2023-03-23T22:52:50.895Z,82.28
2023-03-23T22:55:17.619Z,82.26
2023-03-23T22:57:44.193Z,82.36
2023-03-23T23:00:14.724Z,82.52
2023-03-23T23:02:43.025Z,82.66
2023-03-23T23:05:11.439Z,82.92
2023-03-23T23:07:38.619Z,83.43
2023-03-23T23:10:06.074Z,83.08
2023-03-23T23:12:35.140Z,83.71
2023-03-23T23:15:04.090Z,83.70
2023-03-23T23:17:32.123Z,84.22
2023-03-23T23:19:59.948Z,84.08
2023-03-23T23:22:27.100Z,83.84
2023-03-23T23:24:54.214Z,84.51
2023-03-23T23:27:21.002Z,84.67
2023-03-23T23:29:47.751Z,84.93
2023-03-23T23:32:14.776Z,84.91
2023-03-23T23:34:41.521Z,84.61
2023-03-23T23:37:09.048Z,85.21
2023-03-23T23:39:38.333Z,84.95
2023-03-23T23:42:05.907Z,85.25
2023-03-23T23:44:33.010Z,84.72
2023-03-23T23:46:59.540Z,85.52
2023-03-23T23:49:28.896Z,85.53
2023-03-23T23:51:56.651Z,85.85
2023-03-23T23:54:29.580Z,85.29
2023-03-23T23:57:00.315Z,85.59
2023-03-23T23:59:27.573Z,85.69
